LiveATC.Net - Listen to live air traffic control over the Internet! Contact for advertising information

ICAO: KRDG  IATA: RDG   Airport: Reading Regional Airport/Carl A Spaatz Field
City: Reading   State/Province: Pennsylvania
Country: United States   Continent: North America
KRDG METAR Weather: KRDG 060754Z 00000KT 10SM CLR 07/06 A3008 RMK AO2 SLP192 T00720056
KRDG Flight Activity (FlightAware)
KRDG Airport Info   (AirNav) (iFlightPlanner)
KRDG VFR Sectional Chart   (iFlightPlanner) 
KRDG IFR Low Chart   (iFlightPlanner) 
KRDG Tower/Approach
Feed Status: UP   Listeners: 2
Listen right in your browser - requires Flash (in browser, requires Flash)
Click here to listen with your own player (launches your MP3 player)
KRDG Tower/Approach Audio Archives
Reading Approach125.150
Reading Tower119.900

Sponsored by: New Horizons Aviation


Unauthorized use prohibited. See Terms of Service

Find LiveATC Audio Streams

Airport/ARTCC Code

(e.g., 124.400, 128.75)
Site-wide search

Browse LiveATC Feeds
LiveATC Coverage Map
Top 50 LiveATC Feeds
Bad Weather Areas

Offer a LiveATC Feed
Press Inquiries

LiveATC on iPhone
LiveATC on Android

LiveATC Mobile
(Mobile browser)

ATC Audio Archives
Interesting Recordings

LiveATC Forums

Home Page
Make a Donation
LiveATC Bookstore

Terms of Use
Privacy Policy

ATC/Radar Sites
U.S. ARTCC Freqs
Canadian Air Freqs


FAA Airport Status
Nat'l Airspace Status
Arrival Demand Charts

Server Software By:

Please make a donation to help us keep growing!